Time;durP1;ratioP1;P1;durP2;ratioP2;P2;SDS_P1;SDS_P2;PMS_P1;PMS_P2;Temp;Humidity;BMP_temperature;BMP_pressure;BME280_temperature;BME280_humidity;BME280_pressure;Samples;Min_cycle;Max_cycle;Signal;HPM_P1;HPM_P2
2022/02/28 00:02:57;;;;;;;47.63;18.97;;;;;;;-2.41;79.15;100549.02;4212394;83;22005;-87
2022/02/28 00:08:59;;;;;;;51.40;21.27;;;;;;;-2.49;79.01;100542.77;4215704;83;21679;-88
2022/02/28 00:15:01;;;;;;;35.70;15.60;;;;;;;-2.53;78.94;100551.02;4163795;83;21154;-88
2022/02/28 00:21:02;;;;;;;49.77;18.77;;;;;;;-2.33;79.51;100552.56;4153380;84;21102;-87
2022/02/28 00:27:04;;;;;;;60.20;23.30;;;;;;;-2.25;79.13;100546.75;4150107;84;21083;-89
2022/02/28 00:33:06;;;;;;;45.43;18.80;;;;;;;-2.18;79.57;100542.00;4154557;84;22425;-87
2022/02/28 00:39:09;;;;;;;47.70;19.13;;;;;;;-2.15;79.55;100542.83;4156214;84;21562;-87
2022/02/28 00:45:10;;;;;;;40.40;18.23;;;;;;;-2.10;80.30;100530.81;4157930;84;21114;-89
2022/02/28 00:51:12;;;;;;;38.07;18.03;;;;;;;-2.08;80.33;100532.68;4154993;84;21119;-87
2022/02/28 00:57:14;;;;;;;47.87;18.17;;;;;;;-2.14;80.22;100526.47;4156132;84;21106;-87
2022/02/28 01:03:15;;;;;;;48.70;19.23;;;;;;;-2.20;80.29;100524.00;4158283;84;21066;-92
2022/02/28 01:09:17;;;;;;;44.40;18.33;;;;;;;-2.32;79.78;100513.42;4147136;84;21098;-89
2022/02/28 01:15:20;;;;;;;46.70;20.23;;;;;;;-2.30;80.34;100506.48;4151949;84;21078;-87
2022/02/28 01:21:22;;;;;;;53.53;22.80;;;;;;;-2.23;80.67;100500.37;4149037;84;21079;-87
2022/02/28 01:27:24;;;;;;;54.13;23.17;;;;;;;-2.28;80.28;100501.13;4151842;84;21114;-86
2022/02/28 01:33:25;;;;;;;49.60;21.20;;;;;;;-2.30;80.52;100494.42;4157610;84;21098;-87
2022/02/28 01:39:26;;;;;;;57.27;23.53;;;;;;;-2.34;80.69;100495.97;4149805;84;21027;-87
2022/02/28 01:45:28;;;;;;;47.50;20.00;;;;;;;-2.32;80.82;100497.87;4151334;84;21086;-89
2022/02/28 01:51:30;;;;;;;48.23;20.63;;;;;;;-2.33;80.96;100493.56;4157892;84;21076;-87
2022/02/28 01:57:31;;;;;;;42.50;18.10;;;;;;;-2.37;80.71;100485.23;4153261;84;21036;-86
2022/02/28 02:03:33;;;;;;;51.17;20.23;;;;;;;-2.38;81.01;100484.15;4156517;84;21651;-88
2022/02/28 02:09:36;;;;;;;45.83;18.20;;;;;;;-2.45;80.94;100483.53;4152130;84;21078;-87
2022/02/28 02:15:41;;;;;;;45.30;20.10;;;;;;;-2.51;80.70;100488.05;4185766;84;22121;-88
2022/02/28 02:21:42;;;;;;;48.00;18.90;;;;;;;-2.62;80.56;100476.12;4191664;84;21113;-89
2022/02/28 02:27:44;;;;;;;45.27;20.93;;;;;;;-2.74;80.63;100482.18;4187872;84;21053;-87
2022/02/28 02:33:47;;;;;;;45.07;19.43;;;;;;;-2.77;80.51;100487.50;4182377;84;21039;-87
2022/02/28 02:39:48;;;;;;;45.83;20.10;;;;;;;-2.74;80.71;100468.23;4191208;84;21062;-87
2022/02/28 02:45:50;;;;;;;33.37;14.63;;;;;;;-2.73;80.28;100469.05;4191025;83;21071;-93
2022/02/28 02:51:51;;;;;;;32.33;15.27;;;;;;;-2.76;80.29;100477.07;4181725;83;21664;-88
2022/02/28 02:57:53;;;;;;;38.17;14.67;;;;;;;-2.73;80.13;100478.42;4184339;84;21634;-90
2022/02/28 03:03:56;;;;;;;34.23;15.00;;;;;;;-2.68;80.13;100477.14;4211740;81;38866;-89
2022/02/28 03:09:58;;;;;;;42.00;15.17;;;;;;;-2.61;80.30;100481.23;4308421;81;21083;-90
2022/02/28 03:16:00;;;;;;;39.17;14.53;;;;;;;-2.56;80.47;100488.00;4264658;82;21681;-88
2022/02/28 03:22:02;;;;;;;35.23;15.30;;;;;;;-2.49;80.53;100480.54;4263634;81;21077;-87
2022/02/28 03:28:05;;;;;;;30.93;14.53;;;;;;;-2.44;80.50;100492.66;4242280;82;21046;-88
2022/02/28 03:34:07;;;;;;;33.17;14.67;;;;;;;-2.42;80.61;100479.00;4247169;82;21055;-89
2022/02/28 03:40:10;;;;;;;33.37;13.63;;;;;;;-2.41;80.50;100482.77;4170422;82;58264;-88
2022/02/28 03:46:13;;;;;;;31.93;13.87;;;;;;;-2.46;80.43;100492.09;4038557;86;21036;-89
2022/02/28 03:52:34;;;;;;;32.40;13.73;;;;;;;-2.48;80.56;100491.56;4048661;86;21155;-87
2022/02/28 03:58:43;;;;;;;28.57;13.37;;;;;;;-2.51;80.85;100487.23;4055317;86;21566;-88
2022/02/28 04:04:47;;;;;;;37.13;14.33;;;;;;;-2.56;80.71;100482.64;4055707;86;21174;-92
2022/02/28 04:10:49;;;;;;;31.23;13.03;;;;;;;-2.61;80.45;100485.78;4065599;86;22378;-89
2022/02/28 04:16:50;;;;;;;34.67;12.30;;;;;;;-2.69;80.49;100487.05;4066439;86;21135;-89
2022/02/28 04:23:10;;;;;;;27.13;12.40;;;;;;;-2.68;80.63;100489.20;4045953;86;21119;-91
2022/02/28 04:29:15;;;;;;;25.17;11.30;;;;;;;-2.64;80.92;100491.65;4054856;86;21075;-88
2022/02/28 04:35:18;;;;;;;30.77;14.27;;;;;;;-2.59;81.06;100496.55;4051377;86;21111;-89
2022/02/28 04:41:22;;;;;;;31.13;14.30;;;;;;;-2.63;80.73;100503.45;4050559;87;21104;-88
2022/02/28 04:47:24;;;;;;;36.87;15.03;;;;;;;-2.74;80.50;100508.98;4053247;87;21083;-88
2022/02/28 04:53:35;;;;;;;32.73;14.50;;;;;;;-2.85;80.48;100505.36;4052750;86;21098;-88
2022/02/28 04:59:41;;;;;;;31.60;14.93;;;;;;;-2.97;80.43;100504.69;4054731;86;21987;-88
2022/02/28 05:05:43;;;;;;;35.83;15.20;;;;;;;-3.11;80.35;100513.34;4054469;86;21067;-89
2022/02/28 05:11:45;;;;;;;28.27;14.50;;;;;;;-3.28;80.21;100516.91;4056512;87;21060;-90
2022/02/28 05:17:47;;;;;;;34.43;14.10;;;;;;;-3.44;80.23;100517.76;4082117;85;21701;-89
2022/02/28 05:23:49;;;;;;;34.97;13.57;;;;;;;-3.59;80.33;100517.56;4070555;87;21082;-89
2022/02/28 05:29:50;;;;;;;29.00;12.73;;;;;;;-3.67;80.43;100523.84;4060459;87;21051;-90
2022/02/28 05:35:53;;;;;;;28.73;13.03;;;;;;;-3.75;80.45;100527.75;4059688;85;21036;-89
2022/02/28 05:41:58;;;;;;;29.33;13.17;;;;;;;-3.80;80.54;100537.03;4068651;87;21784;-89
2022/02/28 05:48:11;;;;;;;27.02;12.53;;;;;;;-3.79;80.70;100529.27;4074108;85;21064;-91
2022/02/28 05:54:10;;;;;;;34.40;13.10;;;;;;;-3.75;81.05;100536.30;4080270;85;21874;-88
2022/02/28 06:00:13;;;;;;;25.27;12.83;;;;;;;-3.62;81.47;100548.02;4076018;85;21062;-91
2022/02/28 06:06:15;;;;;;;27.73;11.60;;;;;;;-3.46;81.63;100550.66;4082493;87;21059;-90
2022/02/28 06:12:17;;;;;;;25.00;11.23;;;;;;;-3.34;81.75;100555.40;4080697;85;21058;-90
2022/02/28 06:18:19;;;;;;;29.57;12.43;;;;;;;-3.23;81.72;100557.68;4055325;85;21063;-90
2022/02/28 06:24:24;;;;;;;27.77;12.37;;;;;;;-3.02;81.81;100560.89;4086866;85;21551;-90
2022/02/28 06:30:27;;;;;;;27.50;11.23;;;;;;;-2.68;81.92;100558.91;4072324;87;21555;-93
2022/02/28 06:36:28;;;;;;;24.13;9.53;;;;;;;-2.25;82.00;100569.55;4076123;85;21039;-92
2022/02/28 06:42:30;;;;;;;24.57;9.93;;;;;;;-1.75;81.89;100569.48;4068215;87;21071;-88
2022/02/28 06:48:34;;;;;;;22.13;9.17;;;;;;;-1.28;81.13;100571.44;4062375;87;21161;-89
2022/02/28 06:54:37;;;;;;;22.93;8.83;;;;;;;-1.06;81.12;100584.17;4116891;84;21482;-93
2022/02/28 07:00:41;;;;;;;21.57;9.37;;;;;;;-0.93;81.01;100585.87;4138133;85;21110;-90
2022/02/28 07:06:44;;;;;;;25.73;9.70;;;;;;;-0.80;80.89;100599.37;4136157;85;21110;-88
2022/02/28 07:12:46;;;;;;;19.17;8.30;;;;;;;-0.90;80.72;100604.17;4134206;85;21192;-90
2022/02/28 07:18:48;;;;;;;19.47;9.00;;;;;;;-0.74;80.75;100604.52;4101987;86;21075;-90
2022/02/28 07:24:49;;;;;;;21.27;8.40;;;;;;;-0.39;80.89;100601.95;4102347;85;21062;-89
2022/02/28 07:30:51;;;;;;;19.33;8.13;;;;;;;-0.26;80.40;100612.23;4101470;85;21095;-90
2022/02/28 07:36:52;;;;;;;19.98;8.15;;;;;;;-0.40;80.23;100617.83;4102579;85;21102;-90
2022/02/28 07:42:54;;;;;;;16.97;6.97;;;;;;;-0.46;80.14;100632.34;4102630;86;21254;-90
2022/02/28 07:48:56;;;;;;;18.27;7.77;;;;;;;-0.56;80.16;100640.36;4102676;86;21546;-90
2022/02/28 07:54:57;;;;;;;16.10;7.53;;;;;;;-0.58;80.09;100641.70;4099885;86;21694;-88
2022/02/28 08:00:59;;;;;;;17.07;7.35;;;;;;;-0.45;80.00;100647.41;4101966;85;21094;-90
2022/02/28 08:07:03;;;;;;;15.10;6.83;;;;;;;-0.25;79.73;100641.30;4069150;86;21026;-89
2022/02/28 08:13:04;;;;;;;15.35;6.87;;;;;;;-0.13;79.86;100645.38;4101355;86;21586;-90
2022/02/28 08:19:05;;;;;;;16.20;7.58;;;;;;;0.29;79.82;100647.88;4100715;85;21095;-91
2022/02/28 08:25:07;;;;;;;20.72;7.62;;;;;;;0.79;79.55;100644.37;4103303;86;21134;-89
2022/02/28 08:31:09;;;;;;;17.55;6.50;;;;;;;1.42;78.71;100644.53;4102166;86;21661;-91
2022/02/28 08:37:14;;;;;;;17.77;7.12;;;;;;;1.43;78.48;100662.85;4072728;86;21079;-90
2022/02/28 08:43:15;;;;;;;10.88;6.12;;;;;;;2.00;77.72;100661.00;4104000;86;21083;-92
2022/02/28 08:49:17;;;;;;;11.00;5.53;;;;;;;2.23;77.02;100665.72;4103493;86;21051;-91
2022/02/28 08:55:19;;;;;;;11.57;5.85;;;;;;;2.34;76.39;100674.84;4103139;86;21071;-90
2022/02/28 09:01:20;;;;;;;14.07;5.78;;;;;;;2.47;75.56;100680.16;4102585;86;21066;-91
2022/02/28 09:07:29;;;;;;;11.08;5.40;;;;;;;3.16;75.12;100671.98;4102650;85;21059;-89
2022/02/28 09:13:31;;;;;;;10.35;5.17;;;;;;;3.82;72.70;100680.75;4102995;85;21138;-90
2022/02/28 09:19:34;;;;;;;13.45;5.97;;;;;;;3.61;73.24;100681.53;4183023;83;21549;-89
2022/02/28 09:25:35;;;;;;;8.23;4.60;;;;;;;3.61;73.06;100679.37;4194943;83;21609;-93
2022/02/28 09:31:38;;;;;;;14.50;5.33;;;;;;;3.99;71.01;100687.84;4184634;83;21065;-88
2022/02/28 09:37:39;;;;;;;505.37;356.10;;;;;;;3.31;71.83;100685.10;4115418;85;21356;-89
2022/02/28 09:43:42;;;;;;;445.27;269.02;;;;;;;2.81;72.18;100690.44;4189805;83;21097;-89
2022/02/28 09:49:48;;;;;;;654.90;284.90;;;;;;;2.86;70.69;100698.52;4144852;83;21080;-92
2022/02/28 09:56:10;;;;;;;1193.80;551.75;;;;;;;2.45;70.92;100691.80;4186690;83;21076;-89
2022/02/28 10:02:14;;;;;;;103.92;55.25;;;;;;;2.60;70.48;100693.06;4178866;83;21562;-90
2022/02/28 10:08:16;;;;;;;465.08;230.95;;;;;;;2.81;69.88;100695.31;4173088;83;21098;-90
2022/02/28 10:14:17;;;;;;;32.53;16.17;;;;;;;2.95;68.68;100692.22;4188447;83;21086;-91
2022/02/28 10:20:28;;;;;;;394.95;207.35;;;;;;;2.80;67.30;100696.95;4179813;84;21611;-89
2022/02/28 10:26:40;;;;;;;812.20;349.70;;;;;;;2.39;67.11;100691.56;4183123;84;21054;-90
2022/02/28 10:32:50;;;;;;;275.82;152.17;;;;;;;2.11;67.15;100694.98;4059216;86;21125;-90
2022/02/28 10:38:57;;;;;;;1023.10;447.00;;;;;;;2.44;67.10;100680.73;3970348;87;21015;-90
2022/02/28 10:45:21;;;;;;;134.45;68.42;;;;;;;2.64;66.66;100683.28;4035716;87;22162;-90
2022/02/28 10:51:26;;;;;;;292.95;141.07;;;;;;;2.90;66.38;100684.14;4047337;87;21055;-95
2022/02/28 11:04:12;;;;;;;76.85;35.23;;;;;;;4.41;63.45;100680.48;4090664;87;21039;-90
2022/02/28 11:10:16;;;;;;;19.15;6.87;;;;;;;3.55;64.74;100687.30;4038073;86;21069;-90
2022/02/28 11:16:18;;;;;;;15.23;6.85;;;;;;;2.89;62.23;100679.84;4049523;87;21633;-90
2022/02/28 11:28:59;;;;;;;351.12;206.55;;;;;;;2.50;63.88;100700.69;4049887;88;21106;-89
2022/02/28 11:35:35;;;;;;;622.60;275.87;;;;;;;2.65;63.91;100707.87;4023126;86;21134;-90
2022/02/28 11:41:47;;;;;;;646.58;262.77;;;;;;;2.47;62.17;100710.72;4048715;88;21048;-88
2022/02/28 11:48:16;;;;;;;16.65;5.47;;;;;;;2.41;62.90;100703.70;4048656;88;21597;-89
2022/02/28 11:54:28;;;;;;;60.10;41.73;;;;;;;2.56;61.93;100698.75;4104440;85;21669;-91
2022/02/28 12:00:47;;;;;;;28.15;19.42;;;;;;;2.61;60.28;100694.66;4105185;85;21083;-88
2022/02/28 12:07:04;;;;;;;6.40;2.87;;;;;;;2.42;60.49;100705.88;4104883;85;21127;-89
2022/02/28 12:13:09;;;;;;;;;;;;;;;2.51;59.64;100710.94;4106719;86;22425;-89
2022/02/28 12:19:15;;;;;;;677.73;297.67;;;;;;;2.44;60.91;100718.03;4153985;84;20629;-89
2022/02/28 12:25:49;;;;;;;228.05;76.85;;;;;;;2.48;60.97;100726.38;4185333;83;21011;-89
2022/02/28 12:31:50;;;;;;;45.58;18.05;;;;;;;2.42;60.75;100713.98;4183330;83;21074;-89
2022/02/28 12:37:55;;;;;;;13.10;5.35;;;;;;;2.79;61.35;100719.13;4188328;83;21105;-90
2022/02/28 12:44:00;;;;;;;15.25;5.60;;;;;;;3.30;60.96;100736.28;4179989;84;21036;-89
2022/02/28 12:50:08;;;;;;;8.78;4.28;;;;;;;3.04;61.20;100738.39;4190050;85;21078;-89
2022/02/28 12:56:14;;;;;;;10.63;4.28;;;;;;;2.79;61.21;100743.47;4192838;83;21081;-90
2022/02/28 13:02:28;;;;;;;20.72;7.50;;;;;;;2.59;61.64;100738.73;4117957;86;21050;-91
2022/02/28 13:08:30;;;;;;;11.95;5.30;;;;;;;2.40;61.60;100749.39;4184661;84;21117;-91
2022/02/28 13:14:53;;;;;;;8.05;4.03;;;;;;;2.36;61.77;100749.70;4187180;85;21025;-90
2022/02/28 13:20:59;;;;;;;7.55;4.22;;;;;;;2.49;61.91;100742.30;4167103;84;21098;-90
2022/02/28 13:27:12;;;;;;;10.45;5.00;;;;;;;2.45;62.07;100748.02;4176868;84;21039;-90
2022/02/28 13:33:15;;;;;;;8.25;4.20;;;;;;;2.55;62.33;100744.45;4091611;85;21121;-89
2022/02/28 13:39:27;;;;;;;10.30;4.67;;;;;;;2.56;62.28;100740.11;4143097;85;21687;-90
2022/02/28 13:45:32;;;;;;;25.25;8.28;;;;;;;2.60;62.26;100758.73;4133945;85;21101;-89
2022/02/28 13:58:27;;;;;;;11.75;5.47;;;;;;;2.73;62.26;100754.59;4204259;84;21077;-90
2022/02/28 14:04:45;;;;;;;11.22;4.87;;;;;;;2.63;62.28;100759.52;4069641;87;21415;-90
2022/02/28 14:10:51;;;;;;;23.40;8.83;;;;;;;2.43;62.36;100761.00;4174749;83;22032;-89
2022/02/28 14:17:06;;;;;;;10.95;4.92;;;;;;;2.20;62.49;100762.20;4176254;84;21025;-89
2022/02/28 14:23:17;;;;;;;24.70;9.03;;;;;;;2.18;62.49;100766.53;4153629;84;21129;-89
2022/02/28 14:30:00;;;;;;;10.40;4.80;;;;;;;2.06;62.50;100767.93;4153488;85;21093;-90
2022/02/28 14:36:04;;;;;;;9.33;4.97;;;;;;;1.95;62.32;100764.47;4155734;85;21072;-90
2022/02/28 14:42:20;;;;;;;14.85;6.83;;;;;;;1.86;62.52;100770.17;4157122;85;21066;-90
2022/02/28 14:48:30;;;;;;;17.25;7.30;;;;;;;1.81;62.81;100780.98;4189238;84;21629;-90
2022/02/28 14:54:58;;;;;;;19.95;10.23;;;;;;;1.79;62.86;100783.67;4113803;85;21078;-89
2022/02/28 15:01:19;;;;;;;23.80;8.30;;;;;;;1.77;63.09;100782.59;4095072;86;22487;-91
2022/02/28 15:07:30;;;;;;;13.13;6.10;;;;;;;1.88;63.65;100784.75;4191163;84;21578;-90
2022/02/28 15:13:39;;;;;;;18.27;7.53;;;;;;;1.98;63.42;100788.75;4182690;84;21639;-90
2022/02/28 15:19:56;;;;;;;18.45;8.00;;;;;;;2.06;63.72;100793.59;4164704;84;21020;-90
2022/02/28 15:25:58;;;;;;;13.78;6.37;;;;;;;2.08;63.61;100791.44;4157122;85;21041;-90
2022/02/28 15:32:00;;;;;;;17.87;6.58;;;;;;;2.05;63.56;100801.44;4157424;85;21022;-90
2022/02/28 15:38:06;;;;;;;13.00;5.95;;;;;;;2.00;63.63;100804.16;4158547;86;21623;-90
2022/02/28 15:44:24;;;;;;;14.10;5.75;;;;;;;1.97;63.89;100808.23;4157965;85;20977;-90
2022/02/28 15:50:43;;;;;;;14.60;5.87;;;;;;;1.93;63.66;100808.48;4157915;86;21676;-90
2022/02/28 15:56:49;;;;;;;9.25;4.58;;;;;;;1.90;63.71;100810.39;4158921;86;21528;-91
2022/02/28 16:02:55;;;;;;;11.40;4.00;;;;;;;1.87;63.83;100806.07;4157488;86;21643;-91
2022/02/28 16:09:03;;;;;;;;;;;;;;;1.85;63.98;100809.05;4161261;86;21887;-94
2022/02/28 16:15:14;;;;;;;13.68;6.95;;;;;;;1.79;64.14;100807.98;4158272;84;20317;-90
2022/02/28 16:21:45;;;;;;;19.95;8.60;;;;;;;1.76;64.05;100816.63;4219457;83;21013;-90
2022/02/28 16:28:08;;;;;;;26.62;11.33;;;;;;;1.69;63.94;100813.41;4245124;82;20985;-89
2022/02/28 16:34:14;;;;;;;12.95;5.70;;;;;;;1.62;64.12;100820.44;4226801;82;21065;-91
2022/02/28 16:40:26;;;;;;;21.55;6.45;;;;;;;1.58;64.17;100822.08;4227657;84;21000;-91
2022/02/28 16:46:35;;;;;;;16.15;6.45;;;;;;;1.56;64.15;100834.50;4218543;84;21025;-90
2022/02/28 16:52:42;;;;;;;16.90;6.42;;;;;;;1.56;64.39;100842.59;4241935;84;21028;-89
2022/02/28 16:59:18;;;;;;;17.67;6.55;;;;;;;1.52;64.62;100844.73;4227987;84;21057;-89
2022/02/28 17:05:29;;;;;;;17.02;7.97;;;;;;;1.46;64.79;100851.22;4218708;84;21096;-89
2022/02/28 17:11:38;;;;;;;22.40;8.78;;;;;;;1.41;65.05;100848.51;4231650;84;21080;-90
2022/02/28 17:17:54;;;;;;;24.40;9.13;;;;;;;1.34;65.28;100856.08;4221223;82;21562;-89
2022/02/28 17:24:01;;;;;;;19.90;7.53;;;;;;;1.26;65.56;100859.31;4186888;85;21321;-89
2022/02/28 17:30:05;;;;;;;15.55;7.80;;;;;;;1.12;65.65;100873.88;4185275;85;21111;-91
2022/02/28 18:02:16;;;;;;;34.90;14.98;;;;;;;0.70;66.71;100896.15;4177806;83;21518;-89
2022/02/28 18:08:47;;;;;;;43.08;18.73;;;;;;;0.71;66.93;100906.38;4177795;85;21065;-88
2022/02/28 18:28:33;;;;;;;30.08;13.35;;;;;;;0.70;67.52;100914.20;4177922;83;21046;-89
2022/02/28 18:34:47;;;;;;;24.25;10.28;;;;;;;0.65;67.75;100910.12;4191954;84;21069;-88
2022/02/28 18:40:48;;;;;;;22.07;10.55;;;;;;;0.55;67.90;100909.55;4183356;83;22016;-90
2022/02/28 18:47:00;;;;;;;67.90;29.27;;;;;;;0.42;67.94;100915.96;4179422;83;21046;-89
2022/02/28 18:53:06;;;;;;;32.03;15.80;;;;;;;0.20;68.14;100915.30;4184365;83;21911;-90
2022/02/28 18:59:08;;;;;;;28.27;12.55;;;;;;;0.02;68.43;100921.13;4179627;83;21098;-91
2022/02/28 19:05:09;;;;;;;23.42;11.68;;;;;;;-0.12;68.73;100924.78;4181049;83;21696;-92
2022/02/28 19:11:10;;;;;;;29.77;11.55;;;;;;;-0.19;68.87;100929.59;4186077;83;21101;-89
2022/02/28 19:17:12;;;;;;;34.75;14.45;;;;;;;-0.44;69.05;100915.93;4185873;83;22111;-94
2022/02/28 19:23:15;;;;;;;41.77;18.45;;;;;;;-0.44;69.05;100915.93;4176768;83;21081;-90
2022/02/28 19:29:20;;;;;;;36.76;17.49;;;;;;;-0.33;69.54;100929.75;4112113;83;9999998;-94
2022/02/28 19:35:21;;;;;;;42.75;17.87;;;;;;;-0.36;69.64;100935.64;4189608;83;21081;-89
2022/02/28 19:41:23;;;;;;;56.73;24.20;;;;;;;-0.42;69.41;100935.30;4190618;83;21056;-89
2022/02/28 19:47:24;;;;;;;71.62;32.53;;;;;;;-0.51;69.66;100931.45;4179899;83;21097;-91
2022/02/28 19:53:25;;;;;;;59.00;26.35;;;;;;;-0.60;69.75;100927.09;4186950;83;21058;-90
2022/02/28 19:59:28;;;;;;;60.63;29.00;;;;;;;-0.69;70.08;100917.05;4185523;83;21070;-89
2022/02/28 20:05:29;;;;;;;79.87;34.10;;;;;;;-0.86;69.93;100919.83;4176274;83;21105;-90
2022/02/28 20:11:31;;;;;;;67.30;28.20;;;;;;;-1.07;70.38;100909.94;4184633;83;21133;-92
2022/02/28 20:17:34;;;;;;;55.33;24.50;;;;;;;-1.17;70.08;100914.38;4184082;83;21048;-92
2022/02/28 20:23:37;;;;;;;90.13;35.00;;;;;;;-1.27;71.12;100911.06;4216094;82;21563;-92
2022/02/28 20:29:38;;;;;;;74.35;30.82;;;;;;;-1.51;70.71;100909.69;4082750;83;9999897;-90
2022/02/28 20:35:42;;;;;;;84.57;34.40;;;;;;;-1.70;71.47;100919.92;4205342;83;21028;-90
2022/02/28 20:41:44;;;;;;;88.47;37.93;;;;;;;-1.77;71.63;100916.59;4194644;83;22138;-91
2022/02/28 20:47:46;;;;;;;88.87;40.43;;;;;;;-1.84;71.45;100908.44;4215019;83;21534;-90
2022/02/28 20:53:49;;;;;;;90.43;38.17;;;;;;;-1.97;71.41;100909.60;4226135;83;22052;-88
2022/02/28 20:59:51;;;;;;;76.67;34.77;;;;;;;-2.11;71.26;100910.19;4211539;83;21028;-93
2022/02/28 21:05:52;;;;;;;98.27;40.67;;;;;;;-2.40;72.15;100917.54;4237655;82;21016;-89
2022/02/28 21:11:55;;;;;;;120.70;51.17;;;;;;;-2.52;72.77;100914.10;4207229;83;21072;-90
2022/02/28 21:17:56;;;;;;;106.13;47.90;;;;;;;-2.52;72.98;100914.10;4215476;82;22101;-88
2022/02/28 21:23:58;;;;;;;107.33;47.97;;;;;;;-2.52;72.74;100917.33;4184626;83;21072;-88
2022/02/28 21:30:04;;;;;;;165.60;68.00;;;;;;;-2.60;73.00;100908.34;4189531;83;21108;-89
2022/02/28 21:36:05;;;;;;;259.07;115.03;;;;;;;-2.64;72.97;100902.65;4178204;83;21039;-88
2022/02/28 21:42:07;;;;;;;118.13;47.53;;;;;;;-2.64;73.24;100899.97;4181010;83;20999;-87
2022/02/28 21:48:09;;;;;;;122.63;50.80;;;;;;;-2.72;73.01;100897.69;4191625;83;22175;-87
2022/02/28 21:54:11;;;;;;;143.53;52.53;;;;;;;-2.91;72.82;100900.84;4172701;83;21135;-89
2022/02/28 22:00:13;;;;;;;99.73;42.60;;;;;;;-3.19;73.37;100913.70;4179822;83;21635;-87
2022/02/28 22:06:17;;;;;;;88.90;40.87;;;;;;;-3.22;74.16;100903.47;4159746;83;21104;-87
2022/02/28 22:12:18;;;;;;;120.67;44.53;;;;;;;-3.16;74.25;100905.73;4181459;83;22086;-87
2022/02/28 22:18:19;;;;;;;86.93;37.60;;;;;;;-3.14;74.29;100901.75;4174764;83;21052;-87
2022/02/28 22:24:21;;;;;;;81.50;37.30;;;;;;;-3.21;74.70;100905.11;4213055;82;21568;-91
2022/02/28 22:30:22;;;;;;;85.97;38.03;;;;;;;-3.17;75.04;100905.42;4215851;83;21040;-90
2022/02/28 22:36:24;;;;;;;79.77;36.23;;;;;;;-3.26;75.22;100908.48;4243263;83;21037;-89
2022/02/28 22:42:29;;;;;;;165.07;60.43;;;;;;;-3.33;75.17;100907.82;4225345;83;21087;-88
2022/02/28 22:48:30;;;;;;;147.43;51.27;;;;;;;-3.50;74.37;100909.62;4222997;83;21127;-88
2022/02/28 22:54:32;;;;;;;198.60;70.73;;;;;;;-3.53;75.66;100903.92;4216938;83;21064;-88
2022/02/28 23:00:39;;;;;;;108.80;43.43;;;;;;;-3.39;75.74;100897.24;4216729;83;21032;-87
2022/02/28 23:06:41;;;;;;;88.20;37.60;;;;;;;-3.31;76.34;100892.34;4225531;82;21060;-88
2022/02/28 23:18:58;;;;;;;287.00;94.33;;;;;;;-3.40;76.56;100888.94;4180650;83;22086;-87
2022/02/28 23:25:00;;;;;;;227.40;73.00;;;;;;;-3.44;76.81;100884.57;4212693;82;21655;-88
2022/02/28 23:31:02;;;;;;;176.90;61.80;;;;;;;-3.43;77.38;100888.86;4205674;82;21068;-89
2022/02/28 23:37:05;;;;;;;160.73;56.60;;;;;;;-3.42;77.68;100892.36;4215920;82;21635;-86
2022/02/28 23:43:08;;;;;;;121.70;46.70;;;;;;;-3.56;76.59;100892.34;4195995;83;21950;-87
2022/02/28 23:49:10;;;;;;;134.53;47.90;;;;;;;-3.70;77.47;100884.30;4231477;83;21017;-86
2022/02/28 23:55:12;;;;;;;121.63;47.87;;;;;;;-3.67;78.17;100886.50;4220034;82;21055;-87
